Time;durP1;ratioP1;P1;durP2;ratioP2;P2;SDS_P1;SDS_P2;PMS_P1;PMS_P2;Temp;Humidity;BMP_temperature;BMP_pressure;BME280_temperature;BME280_humidity;BME280_pressure;Samples;Min_cycle;Max_cycle;Signal;HPM_P1;HPM_P2
2023/09/28 00:00:49;;;;;;;5.17;3.00;;;22.20;1.00;;;;;;5115527;28;20265;-81
2023/09/28 00:03:15;;;;;;;4.87;2.90;;;22.10;1.00;;;;;;5116044;27;20174;-80
2023/09/28 00:05:43;;;;;;;5.27;2.93;;;22.20;1.00;;;;;;5114955;28;20217;-80
2023/09/28 00:08:12;;;;;;;5.83;3.27;;;22.20;1.00;;;;;;5115409;28;20185;-82
2023/09/28 00:10:38;;;;;;;6.23;2.87;;;22.20;1.00;;;;;;5127830;27;20177;-81
2023/09/28 00:13:03;;;;;;;5.57;3.33;;;22.10;1.00;;;;;;5118763;27;20182;-81
2023/09/28 00:15:29;;;;;;;5.87;3.07;;;22.00;1.00;;;;;;5115735;28;20529;-80
2023/09/28 00:17:55;;;;;;;6.37;2.90;;;21.90;1.00;;;;;;5132181;27;20167;-79
2023/09/28 00:20:22;;;;;;;4.80;3.00;;;21.80;1.00;;;;;;5159555;27;20188;-79
2023/09/28 00:22:52;;;;;;;4.03;2.97;;;21.60;1.00;;;;;;5145256;27;20189;-79
2023/09/28 00:25:19;;;;;;;7.17;3.17;;;21.60;1.00;;;;;;5132420;27;20251;-78
2023/09/28 00:27:50;;;;;;;3.70;2.83;;;21.50;1.00;;;;;;5115788;28;20705;-78
2023/09/28 00:30:20;;;;;;;4.90;2.80;;;21.30;1.00;;;;;;5114273;28;20179;-80
2023/09/28 00:32:47;;;;;;;5.57;3.10;;;21.20;1.00;;;;;;5114844;28;20165;-80
2023/09/28 00:35:13;;;;;;;4.43;3.20;;;21.20;1.00;;;;;;5115228;28;20173;-80
2023/09/28 00:37:39;;;;;;;5.67;3.03;;;21.10;1.00;;;;;;5114382;28;20176;-79
2023/09/28 00:40:27;;;;;;;7.03;3.17;;;21.20;1.00;;;;;;5114054;28;20173;-80
2023/09/28 00:42:54;;;;;;;6.50;3.30;;;21.10;1.00;;;;;;5127900;27;20747;-80
2023/09/28 00:45:22;;;;;;;5.03;3.07;;;21.00;1.00;;;;;;5134527;27;20202;-81
2023/09/28 00:47:51;;;;;;;5.43;3.63;;;21.00;1.00;;;;;;5137232;27;20201;-79
2023/09/28 00:50:18;;;;;;;6.10;3.27;;;21.00;1.00;;;;;;5137783;27;20180;-78
2023/09/28 00:52:52;;;;;;;5.90;3.30;;;21.00;1.00;;;;;;5135806;27;20281;-79
2023/09/28 00:55:19;;;;;;;6.23;3.53;;;21.00;1.00;;;;;;5134011;27;20649;-80
2023/09/28 00:57:47;;;;;;;6.33;3.03;;;21.00;1.00;;;;;;5122387;27;20288;-79
2023/09/28 01:00:27;;;;;;;4.80;3.30;;;21.00;1.00;;;;;;5113857;28;20638;-81
2023/09/28 01:02:57;;;;;;;5.33;3.37;;;20.90;1.00;;;;;;5114962;28;20166;-81
2023/09/28 01:05:34;;;;;;;6.47;3.27;;;20.80;1.00;;;;;;5112679;28;20259;-82
2023/09/28 01:08:07;;;;;;;5.80;3.80;;;20.80;1.00;;;;;;5113098;28;20264;-80
2023/09/28 01:10:37;;;;;;;6.20;3.17;;;20.80;1.00;;;;;;5113466;28;20182;-81
2023/09/28 01:13:10;;;;;;;5.13;3.40;;;20.70;1.00;;;;;;5114757;28;20273;-81
2023/09/28 01:15:47;;;;;;;5.70;3.53;;;20.60;2.80;;;;;;5115953;28;20187;-82
2023/09/28 01:18:17;;;;;;;5.57;3.27;;;20.60;5.00;;;;;;5114770;28;20269;-80
2023/09/28 01:20:49;;;;;;;7.10;3.50;;;20.50;8.20;;;;;;5114899;28;20174;-82
2023/09/28 01:23:15;;;;;;;6.73;3.43;;;20.50;11.10;;;;;;5115923;28;20602;-80
2023/09/28 01:25:41;;;;;;;7.13;4.30;;;20.50;12.20;;;;;;5114247;28;20288;-82
2023/09/28 01:28:07;;;;;;;6.73;3.77;;;20.40;14.30;;;;;;5120338;28;20639;-81
2023/09/28 01:30:34;;;;;;;4.30;3.23;;;20.40;15.50;;;;;;5135749;27;20170;-83
2023/09/28 01:33:02;;;;;;;4.87;3.10;;;20.30;16.70;;;;;;5136495;28;20169;-80
2023/09/28 01:35:28;;;;;;;6.50;3.47;;;20.20;18.80;;;;;;5135913;27;20172;-81
2023/09/28 01:38:12;;;;;;;5.17;3.73;;;20.30;18.60;;;;;;5131813;27;20594;-82
2023/09/28 01:40:38;;;;;;;8.20;3.70;;;20.30;19.50;;;;;;5130563;28;20304;-81
2023/09/28 01:43:04;;;;;;;7.57;3.73;;;20.40;16.80;;;;;;5115777;28;20190;-81
2023/09/28 01:45:30;;;;;;;7.00;3.80;;;20.30;18.60;;;;;;5138199;27;20224;-80
2023/09/28 01:47:56;;;;;;;6.90;3.67;;;20.20;22.70;;;;;;5135699;27;20179;-82
2023/09/28 01:50:21;;;;;;;5.53;3.80;;;20.10;23.90;;;;;;5134122;28;20183;-80
2023/09/28 01:52:47;;;;;;;6.97;3.90;;;20.30;20.70;;;;;;5136836;27;20192;-81
2023/09/28 01:55:13;;;;;;;5.87;3.70;;;20.30;21.80;;;;;;5129076;27;20190;-82
2023/09/28 01:57:39;;;;;;;6.67;3.87;;;20.20;24.20;;;;;;5116483;28;20171;-83
2023/09/28 02:00:16;;;;;;;7.00;3.93;;;20.00;27.10;;;;;;5114907;28;20550;-81
2023/09/28 02:02:46;;;;;;;5.23;3.80;;;20.00;29.00;;;;;;5115275;28;20198;-83
2023/09/28 02:05:15;;;;;;;5.90;3.80;;;20.00;30.50;;;;;;5116431;28;20677;-82
2023/09/28 02:07:42;;;;;;;8.67;4.10;;;19.90;32.10;;;;;;5117144;28;20203;-81
2023/09/28 02:10:09;;;;;;;6.40;4.40;;;19.70;36.60;;;;;;5136225;27;20195;-80
2023/09/28 02:12:41;;;;;;;7.70;4.03;;;19.70;39.40;;;;;;5136878;27;20170;-80
2023/09/28 02:15:09;;;;;;;5.40;4.27;;;19.70;41.60;;;;;;5135031;28;20172;-79
2023/09/28 02:17:36;;;;;;;9.30;4.17;;;19.70;42.80;;;;;;5137205;27;20162;-80
2023/09/28 02:20:08;;;;;;;9.00;4.57;;;19.70;41.90;;;;;;5138261;27;20164;-80
2023/09/28 02:22:35;;;;;;;8.33;4.27;;;19.70;42.90;;;;;;5126828;27;20168;-81
2023/09/28 02:25:02;;;;;;;6.07;4.37;;;19.80;42.30;;;;;;5118234;28;20200;-83
2023/09/28 02:27:28;;;;;;;7.07;4.53;;;19.70;43.70;;;;;;5118566;28;20203;-81
2023/09/28 02:29:54;;;;;;;9.20;4.63;;;19.60;46.40;;;;;;5137765;27;20238;-81
2023/09/28 02:32:19;;;;;;;5.80;4.03;;;19.80;45.00;;;;;;5141254;27;20162;-80
2023/09/28 02:34:45;;;;;;;7.40;4.50;;;19.80;45.50;;;;;;5143410;27;20531;-83
2023/09/28 02:37:11;;;;;;;7.73;4.67;;;19.80;45.80;;;;;;5141490;27;20264;-82
2023/09/28 02:39:37;;;;;;;6.13;4.33;;;19.70;47.00;;;;;;5137541;27;20274;-83
2023/09/28 02:42:07;;;;;;;6.47;4.70;;;19.80;46.50;;;;;;5129406;27;20658;-82
2023/09/28 02:44:36;;;;;;;6.73;4.27;;;19.80;46.60;;;;;;5117638;28;20218;-83
2023/09/28 02:47:05;;;;;;;7.53;4.50;;;19.70;47.50;;;;;;5119378;27;20545;-81
2023/09/28 02:49:34;;;;;;;7.10;4.43;;;19.70;49.70;;;;;;5138235;27;20219;-82
2023/09/28 02:52:01;;;;;;;6.77;4.50;;;19.70;50.70;;;;;;5138185;27;20597;-82
2023/09/28 02:54:29;;;;;;;7.03;4.90;;;19.60;52.30;;;;;;5139346;27;20182;-80
2023/09/28 02:56:55;;;;;;;7.63;4.60;;;19.80;50.60;;;;;;5133752;27;20206;-81
2023/09/28 02:59:24;;;;;;;9.23;5.13;;;19.80;49.20;;;;;;5119984;28;20176;-83
2023/09/28 03:01:52;;;;;;;8.93;4.67;;;19.90;46.90;;;;;;5117808;28;20624;-83
2023/09/28 03:04:18;;;;;;;8.40;4.93;;;19.80;48.30;;;;;;5118833;27;20580;-81
2023/09/28 03:06:44;;;;;;;6.40;4.60;;;19.60;53.50;;;;;;5116748;28;20252;-80
2023/09/28 03:09:12;;;;;;;9.03;4.50;;;19.70;54.50;;;;;;5129467;27;20190;-80
2023/09/28 03:11:41;;;;;;;8.00;5.30;;;19.60;56.00;;;;;;5139674;27;20697;-82
2023/09/28 03:14:07;;;;;;;7.83;4.70;;;19.70;56.60;;;;;;5138103;27;20172;-80
2023/09/28 03:16:33;;;;;;;7.63;4.67;;;19.70;56.30;;;;;;5150279;27;20166;-79
2023/09/28 03:19:00;;;;;;;9.13;5.03;;;19.70;56.80;;;;;;5155342;27;20151;-80
2023/09/28 03:21:29;;;;;;;8.13;4.90;;;19.60;57.70;;;;;;5123800;27;20190;-80
2023/09/28 03:23:56;;;;;;;10.93;5.07;;;19.70;58.80;;;;;;5115350;28;20198;-80
2023/09/28 03:26:23;;;;;;;8.43;5.30;;;19.70;57.30;;;;;;5116956;28;20173;-82
2023/09/28 03:28:49;;;;;;;7.40;4.90;;;19.70;57.90;;;;;;5115368;28;20167;-81
2023/09/28 03:31:14;;;;;;;10.30;5.07;;;19.70;56.80;;;;;;5113960;28;20516;-80
2023/09/28 03:33:40;;;;;;;6.63;4.80;;;19.80;56.60;;;;;;5114529;27;20179;-81
2023/09/28 03:36:07;;;;;;;10.93;4.60;;;19.80;56.70;;;;;;5115604;28;20178;-80
2023/09/28 03:38:33;;;;;;;7.63;4.67;;;19.80;54.70;;;;;;5117720;28;20174;-81
2023/09/28 03:40:59;;;;;;;7.70;5.20;;;19.80;53.40;;;;;;5158919;27;20203;-80
2023/09/28 03:43:26;;;;;;;9.47;5.00;;;19.60;56.10;;;;;;5153740;27;20193;-80
2023/09/28 03:45:52;;;;;;;9.87;4.70;;;19.60;59.90;;;;;;5119001;27;20209;-81
2023/09/28 03:48:18;;;;;;;8.37;4.83;;;19.50;62.10;;;;;;5116253;28;20172;-81
2023/09/28 03:50:43;;;;;;;6.57;4.43;;;19.40;63.60;;;;;;5115253;28;20169;-81
2023/09/28 03:53:09;;;;;;;8.03;4.67;;;19.30;65.60;;;;;;5117320;28;20209;-79
2023/09/28 03:55:36;;;;;;;9.73;4.90;;;19.30;64.60;;;;;;5114231;28;20178;-80
2023/09/28 03:58:02;;;;;;;9.63;4.77;;;19.50;58.80;;;;;;5115407;28;20170;-80
2023/09/28 04:00:28;;;;;;;10.17;4.90;;;19.50;56.70;;;;;;5113704;27;20188;-81
2023/09/28 04:02:54;;;;;;;11.70;4.60;;;19.60;53.60;;;;;;5114483;28;20182;-80
2023/09/28 04:05:20;;;;;;;9.53;4.57;;;19.40;55.20;;;;;;5114012;28;20634;-81
2023/09/28 04:07:47;;;;;;;11.30;4.43;;;19.20;54.70;;;;;;5116918;27;20174;-80
2023/09/28 04:10:13;;;;;;;9.00;4.00;;;19.20;50.20;;;;;;5133560;27;20165;-81
2023/09/28 04:12:38;;;;;;;9.53;3.90;;;19.20;44.40;;;;;;5139034;27;20191;-81
2023/09/28 04:15:05;;;;;;;10.77;3.67;;;19.10;39.20;;;;;;5141414;27;20177;-81
2023/09/28 04:17:31;;;;;;;7.80;3.27;;;19.10;35.20;;;;;;5134828;27;20168;-80
2023/09/28 04:19:56;;;;;;;11.93;4.00;;;19.00;30.70;;;;;;5121119;27;20179;-80
2023/09/28 04:22:22;;;;;;;12.87;3.97;;;19.00;28.70;;;;;;5125634;27;20178;-81
2023/09/28 04:24:47;;;;;;;9.97;4.23;;;19.00;28.20;;;;;;5134800;27;20215;-80
2023/09/28 04:27:13;;;;;;;11.70;3.47;;;18.90;29.40;;;;;;5133036;27;20504;-81
2023/09/28 04:29:39;;;;;;;11.20;3.50;;;18.90;29.20;;;;;;5133296;27;20643;-81
2023/09/28 04:32:05;;;;;;;10.43;3.63;;;19.00;29.80;;;;;;5118607;27;20170;-81
2023/09/28 04:34:31;;;;;;;10.30;3.90;;;19.00;28.50;;;;;;5124749;27;20506;-80
2023/09/28 04:36:57;;;;;;;13.57;4.20;;;19.00;26.90;;;;;;5134917;27;20622;-81
2023/09/28 04:39:24;;;;;;;13.23;4.20;;;19.00;25.80;;;;;;5127484;27;20865;-80
2023/09/28 04:41:55;;;;;;;16.93;4.27;;;19.00;24.00;;;;;;5115175;28;20212;-79
2023/09/28 04:44:23;;;;;;;12.03;3.23;;;18.90;23.50;;;;;;5114797;28;20224;-80
2023/09/28 04:46:50;;;;;;;12.03;4.33;;;18.70;27.20;;;;;;5115344;28;20172;-80
2023/09/28 04:49:17;;;;;;;11.07;3.67;;;18.70;28.60;;;;;;5112357;28;20277;-81
2023/09/28 04:51:43;;;;;;;10.03;3.83;;;18.50;30.90;;;;;;5114922;28;20173;-81
2023/09/28 04:54:08;;;;;;;14.10;4.27;;;18.50;33.90;;;;;;5117458;27;20181;-82
2023/09/28 04:56:35;;;;;;;13.67;3.40;;;18.50;32.90;;;;;;5134128;27;20160;-80
2023/09/28 04:59:00;;;;;;;11.77;4.20;;;18.50;32.10;;;;;;5133004;27;20264;-81
2023/09/28 05:01:27;;;;;;;20.37;4.13;;;18.40;32.20;;;;;;5116051;27;20653;-81
2023/09/28 05:03:55;;;;;;;13.87;4.13;;;18.40;34.40;;;;;;5115392;28;20179;-82
2023/09/28 05:06:22;;;;;;;11.73;3.87;;;18.30;33.80;;;;;;5114361;28;20180;-81
2023/09/28 05:08:49;;;;;;;14.67;4.40;;;18.30;35.10;;;;;;5114652;28;20171;-81
2023/09/28 05:11:16;;;;;;;15.73;4.07;;;18.40;34.20;;;;;;5116109;28;20178;-80
2023/09/28 05:13:42;;;;;;;14.20;4.13;;;18.40;33.90;;;;;;5135337;27;20608;-81
2023/09/28 05:16:08;;;;;;;16.40;4.60;;;18.40;33.10;;;;;;5133735;28;20182;-80
2023/09/28 05:18:35;;;;;;;13.10;4.17;;;18.40;34.10;;;;;;5134833;28;20173;-80
2023/09/28 05:21:01;;;;;;;14.50;4.03;;;18.50;31.90;;;;;;5114750;28;20293;-81
2023/09/28 05:23:26;;;;;;;17.43;4.93;;;18.40;31.40;;;;;;5112350;28;20227;-81
2023/09/28 05:25:52;;;;;;;14.40;4.47;;;18.40;31.30;;;;;;5112780;28;20211;-79
2023/09/28 05:28:18;;;;;;;18.03;4.77;;;18.50;28.90;;;;;;5116917;28;20178;-82
2023/09/28 05:30:44;;;;;;;17.67;4.90;;;18.70;26.40;;;;;;5134604;27;20245;-81
2023/09/28 05:33:09;;;;;;;16.37;4.33;;;18.50;27.60;;;;;;5117813;27;20547;-80
2023/09/28 05:35:35;;;;;;;19.23;4.50;;;18.30;32.50;;;;;;5114988;28;20170;-81
2023/09/28 05:38:02;;;;;;;16.57;4.77;;;18.30;35.30;;;;;;5113231;28;20177;-81
2023/09/28 05:40:27;;;;;;;13.97;4.00;;;18.40;33.20;;;;;;5128726;28;20186;-81
2023/09/28 05:42:53;;;;;;;17.17;4.73;;;18.30;36.90;;;;;;5134438;27;20186;-83
2023/09/28 05:45:19;;;;;;;17.20;4.73;;;18.30;37.70;;;;;;5136151;28;20274;-83
2023/09/28 05:47:44;;;;;;;17.80;5.40;;;18.20;39.10;;;;;;5124259;27;20197;-80
2023/09/28 05:50:11;;;;;;;17.13;4.97;;;18.20;40.30;;;;;;5122071;28;20643;-84
2023/09/28 05:52:37;;;;;;;17.30;4.13;;;18.20;41.50;;;;;;5118565;28;20189;-80
2023/09/28 05:55:03;;;;;;;14.67;4.73;;;18.10;44.20;;;;;;5136702;27;20171;-81
2023/09/28 05:57:29;;;;;;;14.77;4.20;;;18.10;44.70;;;;;;5154100;27;20534;-80
2023/09/28 05:59:54;;;;;;;14.03;4.70;;;18.00;44.90;;;;;;5142592;27;20162;-80
2023/09/28 06:02:21;;;;;;;14.43;4.50;;;18.00;46.30;;;;;;5137884;27;20531;-86
2023/09/28 06:04:47;;;;;;;15.63;4.73;;;18.10;45.10;;;;;;5132474;27;20234;-80
2023/09/28 06:07:13;;;;;;;17.47;4.40;;;18.00;45.80;;;;;;5146497;27;20573;-81
2023/09/28 06:09:42;;;;;;;16.63;4.93;;;18.00;48.60;;;;;;5135223;27;20171;-81
2023/09/28 06:12:08;;;;;;;17.83;4.33;;;17.90;49.60;;;;;;5137606;27;20185;-82
2023/09/28 06:14:34;;;;;;;13.53;4.80;;;17.90;50.90;;;;;;5138452;27;20173;-77
2023/09/28 06:17:00;;;;;;;13.60;4.30;;;17.90;50.20;;;;;;5139301;27;20162;-84
2023/09/28 06:19:27;;;;;;;20.37;4.97;;;18.00;50.20;;;;;;5135468;27;20185;-82
2023/09/28 06:21:54;;;;;;;15.73;4.60;;;18.00;49.40;;;;;;5130192;27;20699;-82
2023/09/28 06:24:20;;;;;;;17.33;4.77;;;17.90;49.80;;;;;;5133592;27;20193;-83
2023/09/28 06:26:46;;;;;;;14.70;4.57;;;18.00;50.00;;;;;;5131948;27;20181;-79
2023/09/28 06:29:12;;;;;;;17.73;5.13;;;18.10;47.80;;;;;;5133989;27;20174;-83
2023/09/28 06:31:38;;;;;;;21.27;5.03;;;18.20;44.10;;;;;;5134444;27;20585;-82
2023/09/28 06:34:06;;;;;;;16.83;5.10;;;18.10;43.90;;;;;;5135309;27;20271;-82
2023/09/28 06:36:32;;;;;;;20.97;5.67;;;18.00;46.60;;;;;;5139026;27;20231;-80
2023/09/28 06:39:00;;;;;;;19.83;5.17;;;18.10;47.80;;;;;;5152817;27;20438;-84
2023/09/28 06:41:26;;;;;;;17.73;4.70;;;18.00;48.10;;;;;;5139790;27;20168;-83
2023/09/28 06:43:51;;;;;;;20.30;5.33;;;18.10;46.70;;;;;;5137070;27;20221;-85
2023/09/28 06:46:26;;;;;;;21.13;5.70;;;18.10;46.40;;;;;;5134943;27;20300;-85
2023/09/28 06:48:52;;;;;;;19.07;5.23;;;18.00;48.40;;;;;;5137021;27;20177;-85
2023/09/28 06:51:19;;;;;;;18.33;4.67;;;18.00;48.30;;;;;;5138636;27;20184;-86
2023/09/28 06:53:45;;;;;;;23.00;5.30;;;18.10;46.70;;;;;;5137124;27;20253;-83
2023/09/28 06:56:12;;;;;;;19.43;5.27;;;18.10;44.10;;;;;;5136240;27;20170;-82
2023/09/28 06:58:37;;;;;;;22.77;5.43;;;18.10;44.50;;;;;;5135570;27;20178;-82
2023/09/28 07:01:03;;;;;;;21.00;4.67;;;18.20;44.80;;;;;;5156212;27;20351;-81
2023/09/28 07:03:31;;;;;;;17.50;4.97;;;18.30;44.10;;;;;;5143719;27;20195;-81
2023/09/28 07:05:57;;;;;;;18.97;5.40;;;18.30;41.70;;;;;;5139165;27;20230;-82
2023/09/28 07:08:23;;;;;;;17.90;5.27;;;18.50;37.90;;;;;;5139738;27;20160;-79
2023/09/28 07:10:56;;;;;;;18.27;4.53;;;18.70;32.90;;;;;;5138647;27;20170;-83
2023/09/28 07:13:22;;;;;;;22.13;4.77;;;18.50;34.50;;;;;;5137667;27;20244;-81
2023/09/28 07:15:47;;;;;;;19.17;5.53;;;18.60;36.80;;;;;;5136564;27;20614;-81
2023/09/28 07:18:13;;;;;;;21.00;5.73;;;18.60;35.90;;;;;;5136672;27;20206;-79
2023/09/28 07:20:39;;;;;;;22.13;5.57;;;18.70;32.90;;;;;;5133915;27;20178;-84
2023/09/28 07:23:04;;;;;;;21.60;5.80;;;18.70;32.70;;;;;;5115025;28;20220;-82
2023/09/28 07:25:30;;;;;;;23.50;5.10;;;18.80;30.90;;;;;;5131748;27;20268;-82
2023/09/28 07:27:56;;;;;;;21.60;5.87;;;18.90;31.30;;;;;;5136275;27;20173;-82
2023/09/28 07:30:25;;;;;;;16.13;5.03;;;19.00;29.30;;;;;;5137311;27;20250;-81
2023/09/28 07:32:51;;;;;;;15.33;4.90;;;18.90;29.20;;;;;;5138493;27;20310;-81
2023/09/28 07:35:18;;;;;;;15.50;4.60;;;18.80;31.50;;;;;;5137130;27;20653;-81
2023/09/28 07:37:44;;;;;;;19.20;4.90;;;18.90;28.70;;;;;;5135958;27;20196;-81
2023/09/28 07:40:12;;;;;;;24.73;5.73;;;19.00;28.80;;;;;;5138403;27;20745;-81
2023/09/28 07:42:43;;;;;;;22.80;4.70;;;19.00;27.30;;;;;;5136479;27;20184;-83
2023/09/28 07:45:11;;;;;;;20.60;5.40;;;19.00;29.20;;;;;;5136811;27;20193;-81
2023/09/28 07:47:38;;;;;;;19.00;5.43;;;19.00;29.80;;;;;;5144058;27;20158;-81
2023/09/28 07:50:10;;;;;;;23.40;5.40;;;19.10;27.10;;;;;;5137671;27;20269;-84
2023/09/28 07:52:38;;;;;;;20.60;4.93;;;19.10;26.40;;;;;;5136450;27;20674;-82
2023/09/28 07:55:05;;;;;;;19.23;5.00;;;19.00;24.70;;;;;;5136335;27;20176;-83
2023/09/28 07:57:32;;;;;;;22.53;5.67;;;18.90;28.10;;;;;;5137400;27;20214;-83
2023/09/28 07:59:59;;;;;;;21.00;5.40;;;19.00;28.90;;;;;;5123909;27;20187;-81
2023/09/28 08:02:24;;;;;;;18.57;5.23;;;19.00;27.50;;;;;;5131306;27;20240;-83
2023/09/28 08:04:51;;;;;;;20.90;5.17;;;19.10;26.30;;;;;;5130531;27;20296;-82
2023/09/28 08:07:18;;;;;;;20.80;5.47;;;19.20;26.70;;;;;;5135444;27;20170;-80
2023/09/28 08:09:43;;;;;;;22.97;5.27;;;19.30;27.30;;;;;;5135984;27;20166;-84
2023/09/28 08:12:09;;;;;;;21.70;5.10;;;19.40;24.00;;;;;;5137781;27;20199;-82
2023/09/28 08:14:36;;;;;;;23.30;5.13;;;19.60;18.40;;;;;;5136844;27;20205;-84
2023/09/28 08:17:02;;;;;;;19.77;5.20;;;19.60;16.00;;;;;;5126271;27;20563;-83
2023/09/28 08:19:29;;;;;;;21.17;5.00;;;19.60;13.10;;;;;;5128466;27;20233;-82
2023/09/28 08:21:55;;;;;;;21.47;5.33;;;19.60;11.90;;;;;;5127732;27;20672;-82
2023/09/28 08:24:21;;;;;;;20.87;5.07;;;19.50;14.40;;;;;;5115489;28;20211;-81
2023/09/28 08:26:47;;;;;;;14.83;4.37;;;19.50;15.90;;;;;;5116218;28;20173;-83
2023/09/28 08:29:15;;;;;;;18.63;5.27;;;19.50;14.20;;;;;;5115609;28;20202;-80
2023/09/28 08:31:41;;;;;;;19.37;5.20;;;19.50;12.40;;;;;;5122910;27;20191;-82
2023/09/28 08:34:08;;;;;;;22.10;5.23;;;19.50;10.80;;;;;;5135444;27;20173;-83
2023/09/28 08:36:34;;;;;;;19.70;4.90;;;19.60;6.70;;;;;;5135936;27;20177;-82
2023/09/28 08:38:59;;;;;;;21.77;5.37;;;19.60;8.50;;;;;;5135971;27;20173;-81
2023/09/28 08:41:37;;;;;;;18.07;4.73;;;19.70;5.20;;;;;;5135070;27;20183;-82
2023/09/28 08:44:06;;;;;;;19.30;4.77;;;19.70;5.40;;;;;;5133897;27;20184;-81
2023/09/28 08:46:39;;;;;;;17.07;4.83;;;19.90;1.00;;;;;;5120814;27;20195;-82
2023/09/28 08:49:07;;;;;;;19.27;4.97;;;20.10;1.00;;;;;;5115222;28;20618;-82
2023/09/28 08:51:36;;;;;;;19.67;5.33;;;20.00;1.00;;;;;;5113385;28;20206;-80
2023/09/28 08:54:05;;;;;;;18.27;4.60;;;20.10;1.00;;;;;;5120720;28;20170;-83
2023/09/28 08:56:42;;;;;;;18.83;4.87;;;20.20;1.00;;;;;;5115534;28;20170;-81
2023/09/28 08:59:12;;;;;;;17.43;4.73;;;20.30;1.00;;;;;;5114905;28;20179;-82
2023/09/28 09:01:39;;;;;;;20.43;5.27;;;20.40;1.00;;;;;;5121318;28;20226;-81
2023/09/28 09:04:05;;;;;;;17.30;4.70;;;20.40;1.00;;;;;;5140748;27;20191;-80
2023/09/28 09:06:31;;;;;;;18.03;4.17;;;20.50;1.00;;;;;;5156250;27;20201;-82
2023/09/28 09:09:03;;;;;;;23.93;4.40;;;20.50;1.00;;;;;;5155640;27;20167;-81
2023/09/28 09:11:33;;;;;;;17.20;4.97;;;20.40;1.00;;;;;;5156257;27;20261;-82
2023/09/28 09:13:59;;;;;;;17.93;4.63;;;20.30;1.00;;;;;;5145848;27;20262;-81
2023/09/28 09:16:27;;;;;;;18.50;4.30;;;20.30;1.00;;;;;;5122573;28;20178;-84
2023/09/28 09:18:54;;;;;;;17.63;4.60;;;20.30;1.00;;;;;;5136245;27;20289;-82
2023/09/28 09:21:21;;;;;;;19.13;4.40;;;20.10;1.00;;;;;;5135552;27;20173;-82
2023/09/28 09:24:03;;;;;;;20.07;4.40;;;20.10;1.00;;;;;;5120412;28;20189;-83
2023/09/28 09:26:38;;;;;;;16.77;4.73;;;20.10;1.00;;;;;;5115616;28;20515;-81
2023/09/28 09:29:03;;;;;;;18.90;4.47;;;20.10;1.00;;;;;;5120488;27;20234;-84
2023/09/28 09:31:30;;;;;;;20.47;4.33;;;20.10;1.00;;;;;;5141520;27;20570;-85
2023/09/28 09:33:56;;;;;;;21.23;4.23;;;20.00;1.00;;;;;;5141464;27;20201;-80
2023/09/28 09:36:22;;;;;;;16.40;4.30;;;20.00;1.00;;;;;;5141390;27;20238;-83
2023/09/28 09:38:50;;;;;;;17.57;4.40;;;20.00;1.00;;;;;;5141003;27;20169;-83
2023/09/28 09:41:16;;;;;;;21.73;5.00;;;19.90;1.00;;;;;;5140323;27;20162;-82
2023/09/28 09:43:42;;;;;;;15.97;4.27;;;20.10;1.00;;;;;;5136850;27;20193;-83
2023/09/28 09:46:09;;;;;;;14.50;4.13;;;20.20;1.00;;;;;;5139287;27;20213;-82
2023/09/28 09:48:43;;;;;;;16.57;4.30;;;20.30;1.00;;;;;;5139731;27;20203;-84
2023/09/28 09:51:17;;;;;;;15.43;5.00;;;20.30;1.00;;;;;;5120566;28;20163;-82
2023/09/28 09:53:45;;;;;;;15.57;4.00;;;20.30;1.00;;;;;;5128185;27;20736;-84
2023/09/28 09:56:12;;;;;;;19.20;4.43;;;20.40;1.00;;;;;;5121452;28;20164;-83
2023/09/28 09:58:53;;;;;;;19.37;4.20;;;20.40;1.00;;;;;;5118753;28;20254;-84
2023/09/28 10:01:20;;;;;;;14.93;3.93;;;20.60;1.00;;;;;;5121760;28;20167;-82
2023/09/28 10:03:48;;;;;;;14.93;3.93;;;20.50;1.00;;;;;;5124387;27;20158;-82
2023/09/28 10:06:18;;;;;;;16.33;4.17;;;20.40;1.00;;;;;;5141328;27;20179;-84
2023/09/28 10:08:46;;;;;;;13.30;3.83;;;20.30;1.00;;;;;;5140029;27;20170;-82
2023/09/28 10:11:13;;;;;;;13.00;4.00;;;20.30;1.00;;;;;;5140810;27;20531;-81
2023/09/28 10:13:39;;;;;;;15.07;3.73;;;20.30;1.00;;;;;;5144341;27;20222;-84
2023/09/28 10:16:08;;;;;;;18.93;4.70;;;20.40;1.00;;;;;;5160939;27;20158;-83
2023/09/28 10:18:36;;;;;;;17.63;4.77;;;20.30;1.00;;;;;;5147170;27;20182;-82
2023/09/28 10:21:03;;;;;;;19.43;4.60;;;20.30;1.00;;;;;;5141768;27;20164;-83
2023/09/28 10:23:31;;;;;;;17.97;3.83;;;20.50;1.00;;;;;;5140395;27;20618;-85
2023/09/28 10:25:58;;;;;;;12.63;3.87;;;20.50;1.00;;;;;;5140744;27;20201;-81
2023/09/28 10:28:25;;;;;;;13.03;3.63;;;20.40;1.00;;;;;;5139786;27;20172;-84
2023/09/28 10:31:15;;;;;;;15.70;4.30;;;20.50;1.00;;;;;;5141395;27;20192;-82
2023/09/28 10:34:01;;;;;;;17.33;4.83;;;20.60;1.00;;;;;;5119556;28;20243;-83
2023/09/28 10:36:27;;;;;;;15.80;4.10;;;20.60;1.00;;;;;;5134786;27;20174;-81
2023/09/28 10:39:16;;;;;;;18.93;4.63;;;20.70;1.00;;;;;;5160188;27;20164;-83
2023/09/28 10:41:49;;;;;;;11.83;3.50;;;20.80;1.00;;;;;;5151602;27;20185;-85
2023/09/28 10:44:17;;;;;;;14.03;4.13;;;20.90;1.00;;;;;;5144800;27;20288;-81
2023/09/28 10:46:50;;;;;;;15.07;3.43;;;20.70;1.00;;;;;;5140206;27;20278;-84
2023/09/28 10:49:28;;;;;;;14.87;4.20;;;20.70;1.00;;;;;;5139665;27;20154;-82
2023/09/28 10:51:57;;;;;;;14.70;4.17;;;20.60;1.00;;;;;;5136120;27;20194;-84
2023/09/28 10:54:27;;;;;;;14.03;3.67;;;20.60;1.00;;;;;;5127516;27;20554;-82
2023/09/28 10:56:53;;;;;;;13.33;3.70;;;20.80;1.00;;;;;;5118419;28;20177;-82
2023/09/28 10:59:19;;;;;;;12.03;3.70;;;21.00;1.00;;;;;;5130352;27;20179;-81
2023/09/28 11:01:46;;;;;;;19.13;4.27;;;21.20;1.00;;;;;;5119737;27;20175;-82
2023/09/28 11:04:13;;;;;;;17.20;4.40;;;21.30;1.00;;;;;;5119589;27;20699;-81
2023/09/28 11:06:43;;;;;;;13.20;3.80;;;21.40;1.00;;;;;;5137150;27;20621;-85
2023/09/28 11:09:14;;;;;;;14.00;3.40;;;21.60;1.00;;;;;;5138339;27;20154;-84
2023/09/28 11:11:43;;;;;;;14.83;3.97;;;21.60;1.00;;;;;;5139410;27;20167;-82
2023/09/28 11:14:10;;;;;;;15.20;3.87;;;21.30;1.00;;;;;;5115847;28;20207;-84
2023/09/28 11:16:41;;;;;;;14.77;4.33;;;21.40;1.00;;;;;;5117083;28;20174;-84
2023/09/28 11:19:09;;;;;;;13.70;3.63;;;21.50;1.00;;;;;;5117006;28;20184;-84
2023/09/28 11:21:36;;;;;;;15.07;4.10;;;21.60;1.00;;;;;;5124260;27;20205;-83
2023/09/28 11:24:02;;;;;;;13.03;3.97;;;21.80;1.00;;;;;;5138597;27;20620;-84
2023/09/28 11:26:29;;;;;;;14.57;3.77;;;21.80;1.00;;;;;;5136916;27;20273;-82
2023/09/28 11:28:57;;;;;;;9.60;3.30;;;21.80;1.00;;;;;;5136641;27;20172;-82
2023/09/28 11:31:25;;;;;;;9.70;3.33;;;21.70;1.00;;;;;;5138359;27;20181;-81
2023/09/28 11:33:52;;;;;;;13.37;4.10;;;21.70;1.00;;;;;;5136129;27;20676;-81
2023/09/28 11:36:23;;;;;;;10.73;3.37;;;21.70;1.00;;;;;;5139358;27;20221;-82
2023/09/28 11:38:49;;;;;;;11.40;3.30;;;21.80;1.00;;;;;;5135789;27;20177;-83
2023/09/28 11:41:16;;;;;;;14.47;3.67;;;21.90;1.00;;;;;;5145061;27;20503;-82
2023/09/28 11:43:49;;;;;;;11.87;3.47;;;22.00;1.00;;;;;;5142123;27;20183;-82
2023/09/28 11:46:27;;;;;;;9.57;3.10;;;21.90;1.00;;;;;;5142051;27;20270;-83
2023/09/28 11:49:10;;;;;;;11.17;3.63;;;21.70;1.00;;;;;;5138444;27;20269;-82
2023/09/28 11:51:37;;;;;;;15.50;3.80;;;21.70;1.00;;;;;;5140838;27;20543;-82
2023/09/28 11:54:11;;;;;;;12.80;3.53;;;21.60;1.00;;;;;;5122159;28;20271;-81
2023/09/28 11:56:37;;;;;;;13.40;3.57;;;21.50;1.00;;;;;;5133051;27;20314;-81
2023/09/28 11:59:03;;;;;;;10.23;3.27;;;21.40;1.00;;;;;;5141937;27;20197;-82
2023/09/28 12:01:29;;;;;;;13.47;4.03;;;21.40;1.00;;;;;;5140895;27;20253;-82
2023/09/28 12:03:56;;;;;;;11.67;3.37;;;21.60;1.00;;;;;;5135421;27;20190;-81
2023/09/28 12:06:22;;;;;;;12.83;3.57;;;21.80;1.00;;;;;;5136032;27;20223;-83
2023/09/28 12:08:48;;;;;;;13.90;3.30;;;21.80;1.00;;;;;;5116807;28;20833;-81
2023/09/28 12:11:14;;;;;;;12.00;3.70;;;22.00;1.00;;;;;;5117781;28;20178;-83
2023/09/28 12:13:40;;;;;;;9.47;3.20;;;21.80;1.00;;;;;;5116758;28;20159;-82
2023/09/28 12:16:07;;;;;;;13.83;3.17;;;21.90;1.00;;;;;;5114621;28;20178;-82
2023/09/28 12:18:33;;;;;;;9.43;3.27;;;22.00;1.00;;;;;;5118413;27;20175;-82
2023/09/28 12:21:00;;;;;;;15.33;3.37;;;22.10;1.00;;;;;;5138788;27;20217;-84
2023/09/28 12:23:27;;;;;;;14.00;3.67;;;22.30;1.00;;;;;;5136843;27;20229;-82
2023/09/28 12:25:54;;;;;;;14.70;3.40;;;22.40;1.00;;;;;;5136418;27;20204;-81
2023/09/28 12:28:22;;;;;;;10.93;3.50;;;22.30;1.00;;;;;;5131507;27;20227;-83
2023/09/28 12:30:48;;;;;;;11.90;3.40;;;22.20;1.00;;;;;;5114912;28;20707;-84
2023/09/28 12:33:15;;;;;;;12.13;3.10;;;22.10;1.00;;;;;;5114736;28;20262;-81
2023/09/28 12:35:42;;;;;;;12.40;3.73;;;22.20;1.00;;;;;;5116636;28;20165;-82
2023/09/28 12:38:08;;;;;;;10.33;3.40;;;22.10;1.00;;;;;;5114909;28;20268;-80
2023/09/28 12:40:35;;;;;;;10.50;2.97;;;22.00;1.00;;;;;;5123720;27;20170;-82
2023/09/28 12:43:09;;;;;;;14.47;3.73;;;21.90;1.00;;;;;;5137213;27;20711;-84
2023/09/28 12:45:35;;;;;;;11.00;3.23;;;21.90;1.00;;;;;;5137830;27;20239;-84
2023/09/28 12:48:03;;;;;;;10.90;3.03;;;22.00;1.00;;;;;;5130105;27;20178;-81